Time;durP1;ratioP1;P1;durP2;ratioP2;P2;SDS_P1;SDS_P2;PMS_P1;PMS_P2;Temp;Humidity;BMP_temperature;BMP_pressure;BME280_temperature;BME280_humidity;BME280_pressure;Samples;Min_cycle;Max_cycle;Signal;HPM_P1;HPM_P2
2021/09/03 00:00:19;;;;;;;6.60;3.95;;;;;;;19.36;65.21;99136.78;5076697;28;20040;-62
2021/09/03 00:02:45;;;;;;;7.40;3.88;;;;;;;19.33;65.36;99125.81;5059616;28;20366;-63
2021/09/03 00:05:14;;;;;;;7.45;4.30;;;;;;;19.35;64.99;99124.63;5060260;28;20032;-65
2021/09/03 00:07:39;;;;;;;6.83;4.53;;;;;;;19.39;65.21;99130.34;5074528;28;20036;-63
2021/09/03 00:10:08;;;;;;;7.88;4.20;;;;;;;19.11;65.30;99091.56;5058921;28;20024;-64
2021/09/03 00:12:33;;;;;;;7.45;4.53;;;;;;;19.36;65.13;99131.53;5053964;28;20043;-63
2021/09/03 00:14:59;;;;;;;9.45;4.43;;;;;;;19.32;65.02;99129.47;5055938;28;20016;-64
2021/09/03 00:17:24;;;;;;;9.10;4.25;;;;;;;19.10;65.05;99097.03;5054722;28;20036;-62
2021/09/03 00:19:50;;;;;;;7.88;4.30;;;;;;;18.99;65.12;99106.25;5039108;28;20033;-63
2021/09/03 00:22:17;;;;;;;8.57;4.75;;;;;;;19.23;65.11;99120.88;5049415;28;20033;-63
2021/09/03 00:24:42;;;;;;;7.90;3.90;;;;;;;19.17;65.29;99119.81;5060908;28;20075;-62
2021/09/03 00:27:08;;;;;;;10.07;4.10;;;;;;;19.18;64.45;99121.44;5055674;28;20156;-63
2021/09/03 00:29:33;;;;;;;8.48;4.00;;;;;;;19.25;64.14;99124.13;5059702;28;20025;-62
2021/09/03 00:31:58;;;;;;;6.72;3.58;;;;;;;19.35;62.81;99123.84;5042824;28;20029;-65
2021/09/03 00:34:24;;;;;;;5.88;3.40;;;;;;;19.40;62.15;99116.16;5076766;28;20065;-63
2021/09/03 00:36:49;;;;;;;8.02;3.47;;;;;;;19.42;61.06;99113.31;5058168;28;20032;-63
2021/09/03 00:39:14;;;;;;;7.85;3.38;;;;;;;19.48;60.06;99107.31;5057253;28;20036;-63
2021/09/03 00:41:40;;;;;;;6.32;3.40;;;;;;;19.39;59.01;99080.25;5063200;28;20111;-63
2021/09/03 00:44:05;;;;;;;6.68;3.17;;;;;;;19.54;59.52;99101.25;5044218;28;20031;-61
2021/09/03 00:46:31;;;;;;;9.18;3.50;;;;;;;19.63;58.48;99118.56;5053546;28;20902;-63
2021/09/03 00:48:57;;;;;;;6.57;3.40;;;;;;;19.67;58.23;99121.66;5075186;28;20028;-65
2021/09/03 00:51:23;;;;;;;6.82;3.60;;;;;;;19.69;58.12;99114.34;5061882;28;20052;-65
2021/09/03 00:53:50;;;;;;;6.25;3.20;;;;;;;19.65;58.91;99113.13;5059525;28;20063;-63
2021/09/03 00:56:16;;;;;;;8.18;3.78;;;;;;;19.69;56.94;99115.16;5056948;28;20093;-63
2021/09/03 00:58:41;;;;;;;6.75;4.10;;;;;;;19.47;56.03;99081.94;5056784;28;20072;-63
2021/09/03 01:01:07;;;;;;;8.13;3.25;;;;;;;19.72;56.65;99124.53;5077412;28;20038;-64
2021/09/03 01:03:32;;;;;;;6.80;3.30;;;;;;;19.68;57.13;99123.28;5060134;28;20028;-63
2021/09/03 01:06:02;;;;;;;6.93;3.15;;;;;;;19.75;57.11;99119.72;5045135;28;20024;-63
2021/09/03 01:08:29;;;;;;;6.13;2.75;;;;;;;19.73;57.15;99099.81;5053501;28;20032;-62
2021/09/03 01:10:54;;;;;;;6.07;3.10;;;;;;;19.90;57.80;99124.91;5055525;28;20028;-63
2021/09/03 01:13:20;;;;;;;5.85;3.03;;;;;;;19.95;57.54;99130.41;5059698;28;20531;-63
2021/09/03 01:15:45;;;;;;;7.65;3.00;;;;;;;19.91;58.48;99134.44;5058278;28;20339;-62
2021/09/03 01:18:11;;;;;;;5.85;3.10;;;;;;;19.77;59.06;99130.91;5055024;28;20033;-64
2021/09/03 01:20:36;;;;;;;7.03;3.78;;;;;;;19.62;60.73;99135.41;5043935;28;20680;-65
2021/09/03 01:23:01;;;;;;;8.20;3.70;;;;;;;19.56;61.28;99141.44;5064731;28;20028;-61
2021/09/03 01:25:27;;;;;;;7.28;4.00;;;;;;;19.58;60.66;99145.50;5045951;28;20032;-63
2021/09/03 01:27:52;;;;;;;7.30;3.55;;;;;;;19.39;61.90;99146.16;5059488;28;20115;-63
2021/09/03 01:30:18;;;;;;;7.22;3.78;;;;;;;19.56;61.55;99147.53;5063859;28;20438;-63
2021/09/03 01:32:44;;;;;;;8.70;3.83;;;;;;;19.53;61.23;99140.00;5042440;28;20063;-64
2021/09/03 01:35:10;;;;;;;7.00;4.10;;;;;;;19.66;61.14;99144.59;5059358;28;20064;-63
2021/09/03 01:37:35;;;;;;;7.63;3.83;;;;;;;19.55;61.64;99140.63;5043352;28;20071;-64
2021/09/03 01:40:01;;;;;;;7.28;3.47;;;;;;;19.55;61.54;99137.19;5059585;28;20064;-66
2021/09/03 01:42:27;;;;;;;6.88;3.78;;;;;;;19.58;61.48;99142.88;5046592;28;20037;-63
2021/09/03 01:44:52;;;;;;;6.25;3.45;;;;;;;19.59;61.33;99120.78;5057455;28;20109;-62
2021/09/03 01:47:18;;;;;;;7.78;3.97;;;;;;;19.68;61.61;99145.22;5060283;28;20548;-63
2021/09/03 01:49:43;;;;;;;7.43;3.70;;;;;;;19.52;61.53;99116.47;5070300;28;20090;-63
2021/09/03 01:52:09;;;;;;;8.07;4.20;;;;;;;19.70;61.74;99145.81;5060033;28;20052;-67
2021/09/03 01:54:34;;;;;;;7.10;3.85;;;;;;;19.63;62.11;99147.59;5052065;28;20044;-61
2021/09/03 01:56:59;;;;;;;9.52;3.95;;;;;;;19.67;62.10;99140.94;5063067;28;20906;-64
2021/09/03 01:59:25;;;;;;;7.28;3.97;;;;;;;19.72;61.93;99149.09;5056121;28;20629;-63
2021/09/03 02:01:50;;;;;;;7.18;4.00;;;;;;;19.68;61.84;99145.22;5055006;28;20040;-63
2021/09/03 02:04:15;;;;;;;8.25;4.53;;;;;;;19.78;61.57;99152.81;5057724;28;20035;-67
2021/09/03 02:06:41;;;;;;;8.38;3.88;;;;;;;19.75;61.47;99146.09;5038633;28;20028;-64
2021/09/03 02:09:06;;;;;;;7.47;4.35;;;;;;;19.66;62.16;99149.03;5059704;28;20032;-63
2021/09/03 02:11:32;;;;;;;8.27;4.45;;;;;;;19.63;62.17;99149.41;5064871;28;20371;-65
2021/09/03 02:13:57;;;;;;;7.07;4.20;;;;;;;19.59;62.36;99138.44;5042842;28;20025;-63
2021/09/03 02:16:23;;;;;;;9.68;4.70;;;;;;;19.66;62.04;99138.47;5044205;28;20089;-63
2021/09/03 02:18:48;;;;;;;7.28;4.15;;;;;;;19.65;62.00;99127.13;5063149;28;20032;-66
2021/09/03 02:21:14;;;;;;;7.40;4.30;;;;;;;19.70;62.18;99131.81;5066744;28;20491;-63
2021/09/03 02:23:39;;;;;;;9.20;4.50;;;;;;;19.71;62.18;99129.00;5063466;28;20103;-63
2021/09/03 02:26:04;;;;;;;8.20;4.32;;;;;;;19.34;62.29;99091.34;5063036;28;20300;-65
2021/09/03 02:28:30;;;;;;;7.88;4.38;;;;;;;19.23;62.31;99062.06;5061433;28;20479;-62
2021/09/03 02:30:55;;;;;;;6.78;4.03;;;;;;;19.64;61.87;99128.13;5077646;28;20632;-63
2021/09/03 02:33:21;;;;;;;8.20;4.38;;;;;;;19.67;61.61;99133.00;5076964;28;21247;-61
2021/09/03 02:35:46;;;;;;;8.10;4.13;;;;;;;19.60;62.11;99124.22;5061995;28;20102;-63
2021/09/03 02:38:12;;;;;;;7.35;4.05;;;;;;;19.64;62.16;99117.59;5069961;28;20035;-63
2021/09/03 02:40:37;;;;;;;9.65;4.00;;;;;;;19.61;61.72;99110.03;5059914;28;20093;-66
2021/09/03 02:43:03;;;;;;;9.00;4.18;;;;;;;19.65;61.69;99115.75;5068383;28;20306;-65
2021/09/03 02:45:28;;;;;;;8.73;4.43;;;;;;;19.57;62.23;99119.34;5059520;28;20482;-62
2021/09/03 02:47:54;;;;;;;8.30;4.53;;;;;;;19.58;62.49;99118.31;5044603;28;20056;-62
2021/09/03 02:50:19;;;;;;;10.05;4.22;;;;;;;19.42;62.07;99082.50;5077283;28;20033;-63
2021/09/03 02:52:45;;;;;;;8.05;3.90;;;;;;;19.62;62.15;99103.75;5065030;28;20031;-62
2021/09/03 02:55:10;;;;;;;7.38;4.15;;;;;;;19.59;62.33;99107.59;5079170;28;20071;-65
2021/09/03 02:57:36;;;;;;;7.07;3.78;;;;;;;19.32;62.52;99074.91;5057055;28;20036;-65
2021/09/03 03:00:03;;;;;;;8.98;4.22;;;;;;;19.43;62.42;99099.16;5057814;28;20028;-64
2021/09/03 03:02:29;;;;;;;8.00;3.95;;;;;;;19.34;61.97;99070.25;5057283;28;20028;-63
2021/09/03 03:04:56;;;;;;;6.50;4.18;;;;;;;19.55;61.86;99098.44;5038772;28;20036;-62
2021/09/03 03:07:21;;;;;;;7.38;3.95;;;;;;;19.60;62.08;99105.75;5060255;28;20063;-63
2021/09/03 03:09:47;;;;;;;9.70;3.90;;;;;;;19.49;62.46;99093.09;5058284;28;20072;-63
2021/09/03 03:12:12;;;;;;;7.32;3.55;;;;;;;19.35;61.65;99082.44;5061042;28;20108;-65
2021/09/03 03:14:38;;;;;;;7.85;3.90;;;;;;;19.39;61.91;99091.59;5054601;28;20036;-64
2021/09/03 03:17:04;;;;;;;6.85;3.78;;;;;;;19.29;62.32;99077.91;5077306;28;20079;-63
2021/09/03 03:19:29;;;;;;;7.90;4.05;;;;;;;19.29;63.13;99087.66;5061316;28;20034;-64
2021/09/03 03:21:55;;;;;;;8.15;3.67;;;;;;;19.18;63.30;99052.06;5064344;28;20100;-66
2021/09/03 03:24:21;;;;;;;7.03;3.70;;;;;;;19.36;63.61;99078.78;5054900;28;20036;-64
2021/09/03 03:26:46;;;;;;;8.63;3.60;;;;;;;19.34;64.29;99072.09;5054291;28;20124;-62
2021/09/03 03:29:12;;;;;;;7.57;3.63;;;;;;;19.36;63.56;99078.78;5061583;28;20112;-63
2021/09/03 03:31:37;;;;;;;6.43;3.65;;;;;;;19.36;63.58;99070.88;5062101;28;20029;-63
2021/09/03 03:34:03;;;;;;;5.68;3.53;;;;;;;19.43;63.30;99057.75;5061935;28;20056;-63
2021/09/03 03:36:29;;;;;;;5.93;3.80;;;;;;;19.44;63.79;99063.84;5065961;28;20042;-63
2021/09/03 03:38:54;;;;;;;6.85;4.10;;;;;;;19.37;63.58;99064.63;5061887;28;20032;-63
2021/09/03 03:41:20;;;;;;;6.13;3.58;;;;;;;19.41;63.93;99070.31;5062328;28;20044;-64
2021/09/03 03:43:45;;;;;;;9.27;3.47;;;;;;;19.25;62.06;99063.50;5063098;28;20032;-64
2021/09/03 03:46:11;;;;;;;8.38;3.35;;;;;;;19.25;61.28;99066.13;5063177;28;20036;-63
2021/09/03 03:48:36;;;;;;;8.35;3.35;;;;;;;19.28;63.44;99063.13;5056599;28;20406;-64
2021/09/03 03:51:02;;;;;;;8.40;3.75;;;;;;;19.23;63.80;99056.78;5060326;28;20394;-65
2021/09/03 03:53:27;;;;;;;6.63;3.63;;;;;;;19.29;64.20;99063.94;5059628;28;20471;-63
2021/09/03 03:55:53;;;;;;;7.43;3.17;;;;;;;19.32;62.43;99067.00;5064715;28;20058;-63
2021/09/03 03:58:18;;;;;;;6.07;3.13;;;;;;;19.32;62.59;99059.09;5051136;28;20036;-64
2021/09/03 04:00:44;;;;;;;6.35;3.00;;;;;;;19.29;62.63;99053.38;5077024;28;20021;-63
2021/09/03 04:03:10;;;;;;;5.55;3.08;;;;;;;19.07;62.25;99021.78;5061078;28;20399;-64
2021/09/03 04:05:35;;;;;;;8.68;3.20;;;;;;;19.26;62.51;99051.97;5041246;28;20073;-62
2021/09/03 04:08:00;;;;;;;6.03;2.95;;;;;;;19.19;62.91;99054.53;5057634;28;20042;-65
2021/09/03 04:10:26;;;;;;;6.18;2.80;;;;;;;19.14;62.75;99056.09;5047811;28;20119;-62
2021/09/03 04:12:51;;;;;;;10.48;3.13;;;;;;;19.19;62.51;99041.34;5059040;28;20033;-63
2021/09/03 04:15:17;;;;;;;7.15;3.00;;;;;;;19.23;62.54;99057.59;5036485;28;20407;-63
2021/09/03 04:17:42;;;;;;;5.38;2.90;;;;;;;19.18;62.77;99049.44;5061631;28;20039;-63
2021/09/03 04:20:08;;;;;;;7.32;3.38;;;;;;;19.15;63.17;99045.38;5074916;28;20036;-63
2021/09/03 04:22:34;;;;;;;6.85;3.05;;;;;;;19.07;63.07;99044.69;5056926;28;20441;-66
2021/09/03 04:24:59;;;;;;;6.80;2.95;;;;;;;19.05;63.14;99049.34;5051367;28;20056;-64
2021/09/03 04:27:24;;;;;;;8.35;3.20;;;;;;;18.81;63.58;99043.44;5052782;28;20616;-63
2021/09/03 04:29:50;;;;;;;6.43;3.00;;;;;;;18.57;63.08;99044.56;5049519;28;20020;-60
2021/09/03 04:32:15;;;;;;;6.30;3.35;;;;;;;18.64;62.67;99050.72;5075624;28;20137;-63
2021/09/03 04:34:41;;;;;;;5.20;2.80;;;;;;;18.59;63.14;99048.63;5056659;28;20042;-63
2021/09/03 04:37:06;;;;;;;5.03;2.53;;;;;;;18.62;62.56;99045.63;5062254;28;20040;-64
2021/09/03 04:39:32;;;;;;;5.22;2.35;;;;;;;18.69;62.19;99048.34;5058756;28;20075;-64
2021/09/03 04:41:58;;;;;;;5.50;2.60;;;;;;;18.68;62.44;99048.53;5068754;28;20407;-64
2021/09/03 04:44:23;;;;;;;6.38;3.22;;;;;;;18.72;61.99;99049.78;5057754;28;20510;-62
2021/09/03 04:46:49;;;;;;;6.68;3.92;;;;;;;18.77;61.96;99050.84;5069824;28;20052;-62
2021/09/03 04:49:14;;;;;;;6.07;3.25;;;;;;;18.56;61.60;99012.16;5058944;28;20459;-64
2021/09/03 04:51:39;;;;;;;6.68;3.05;;;;;;;18.71;61.85;99032.34;5061162;28;20029;-64
2021/09/03 04:54:05;;;;;;;5.40;2.92;;;;;;;18.62;62.11;99040.38;5061025;28;20032;-63
2021/09/03 04:56:30;;;;;;;6.22;3.03;;;;;;;18.57;61.90;99034.84;5064512;28;20089;-64
2021/09/03 04:58:56;;;;;;;7.43;3.72;;;;;;;18.56;62.13;99033.22;5058807;28;20837;-65
2021/09/03 05:01:21;;;;;;;7.85;3.10;;;;;;;18.51;62.07;99025.06;5053781;28;20063;-64
2021/09/03 05:03:48;;;;;;;7.40;2.92;;;;;;;18.61;61.72;99037.91;5064524;28;20050;-64
2021/09/03 05:06:15;;;;;;;7.38;3.30;;;;;;;18.31;61.53;99006.41;5049087;28;20032;-64
2021/09/03 05:08:40;;;;;;;5.82;3.00;;;;;;;18.59;61.60;99035.47;5056202;28;20029;-66
2021/09/03 05:11:06;;;;;;;6.95;2.92;;;;;;;18.53;61.52;99032.78;5071634;28;20467;-64
2021/09/03 05:13:31;;;;;;;9.13;3.17;;;;;;;18.50;61.66;99036.59;5055998;28;20036;-64
2021/09/03 05:15:57;;;;;;;7.85;3.03;;;;;;;18.28;61.89;99001.50;5059217;28;20116;-64
2021/09/03 05:18:22;;;;;;;9.25;3.58;;;;;;;18.36;62.33;99011.09;5066276;28;20024;-63
2021/09/03 05:20:47;;;;;;;11.82;3.65;;;;;;;18.52;62.90;99039.84;5054542;28;20437;-64
2021/09/03 05:23:13;;;;;;;9.52;3.53;;;;;;;18.38;63.44;99043.31;5060445;28;20025;-63
2021/09/03 05:25:38;;;;;;;12.90;3.60;;;;;;;18.40;63.68;99031.63;5060642;28;20051;-63
2021/09/03 05:28:03;;;;;;;12.30;3.80;;;;;;;18.51;63.51;99047.91;5059577;28;20044;-63
2021/09/03 05:30:29;;;;;;;14.25;4.13;;;;;;;18.38;63.65;99038.91;5060371;28;20024;-64
2021/09/03 05:32:54;;;;;;;16.20;3.85;;;;;;;18.19;63.62;99011.31;5072456;28;20060;-63
2021/09/03 05:35:24;;;;;;;9.65;3.78;;;;;;;18.40;63.84;99050.06;5063639;28;20028;-66
2021/09/03 05:37:50;;;;;;;19.48;4.43;;;;;;;18.40;64.11;99042.16;5059357;28;20028;-65
2021/09/03 05:40:16;;;;;;;17.25;4.70;;;;;;;18.54;64.48;99048.38;5054343;28;20060;-63
2021/09/03 05:42:41;;;;;;;22.25;4.35;;;;;;;18.66;63.95;99050.53;5066858;28;20459;-63
2021/09/03 05:45:07;;;;;;;19.73;4.53;;;;;;;18.50;63.98;99002.34;5037940;28;20627;-64
2021/09/03 05:47:33;;;;;;;17.85;4.80;;;;;;;18.72;64.72;99042.69;5073443;28;20029;-63
2021/09/03 05:49:58;;;;;;;11.32;4.80;;;;;;;18.72;64.59;99040.06;5057181;28;20333;-63
2021/09/03 05:52:24;;;;;;;12.10;4.68;;;;;;;18.65;64.22;99041.81;5061443;28;20419;-63
2021/09/03 05:54:49;;;;;;;14.27;4.57;;;;;;;18.73;64.21;99044.34;5079133;28;20032;-65
2021/09/03 05:57:15;;;;;;;12.68;4.55;;;;;;;18.84;63.97;99050.97;5081137;28;20107;-65
2021/09/03 05:59:40;;;;;;;15.88;4.05;;;;;;;18.90;63.53;99042.31;5060930;28;20044;-63
2021/09/03 06:02:06;;;;;;;12.25;4.07;;;;;;;18.97;63.27;99042.38;5044926;28;20050;-63
2021/09/03 06:04:31;;;;;;;10.73;3.80;;;;;;;19.01;62.89;99048.88;5056554;28;20037;-66
2021/09/03 06:06:57;;;;;;;10.50;3.80;;;;;;;18.79;62.33;99003.25;5077373;28;20028;-64
2021/09/03 06:09:22;;;;;;;12.15;3.47;;;;;;;19.12;62.67;99051.00;5056726;28;20056;-63
2021/09/03 06:11:48;;;;;;;11.80;4.13;;;;;;;19.10;61.69;99046.94;5046981;28;20052;-63
2021/09/03 06:14:13;;;;;;;7.57;3.72;;;;;;;19.12;61.87;99043.09;5058025;28;20036;-65
2021/09/03 06:16:39;;;;;;;7.93;3.42;;;;;;;18.88;61.99;99009.25;5059635;28;20071;-63
2021/09/03 06:19:04;;;;;;;8.68;3.53;;;;;;;18.91;61.50;99008.84;5073489;28;20509;-65
2021/09/03 06:21:30;;;;;;;10.30;3.70;;;;;;;19.01;61.37;99010.16;5078715;28;20093;-65
2021/09/03 06:23:55;;;;;;;9.93;3.53;;;;;;;19.16;62.16;99011.91;5066376;28;20574;-65
2021/09/03 06:26:20;;;;;;;9.43;3.45;;;;;;;19.21;61.83;99012.16;5059465;28;20036;-63
2021/09/03 06:28:47;;;;;;;8.43;3.10;;;;;;;19.18;60.59;99008.09;5064222;28;20498;-64
2021/09/03 06:31:12;;;;;;;6.22;3.10;;;;;;;19.43;61.01;99051.69;5044636;28;20029;-64
2021/09/03 06:33:38;;;;;;;7.60;3.33;;;;;;;19.36;61.60;99046.34;5059053;28;20036;-64
2021/09/03 06:36:04;;;;;;;9.52;3.20;;;;;;;19.22;61.72;99021.72;5057904;28;20025;-63
2021/09/03 06:38:31;;;;;;;8.68;3.45;;;;;;;19.31;62.16;99030.28;5045153;28;20031;-64
2021/09/03 06:40:57;;;;;;;8.23;3.80;;;;;;;19.56;62.27;99063.13;5046614;28;20033;-66
2021/09/03 06:43:23;;;;;;;9.23;3.22;;;;;;;19.58;61.46;99055.03;5062632;28;20035;-63
2021/09/03 06:45:48;;;;;;;11.40;3.70;;;;;;;19.38;61.73;99016.16;5042603;28;20147;-63
2021/09/03 06:48:13;;;;;;;7.38;3.78;;;;;;;19.69;62.34;99054.50;5057006;28;20029;-63
2021/09/03 06:50:39;;;;;;;7.03;3.28;;;;;;;19.65;60.42;99049.81;5043783;28;20027;-64
2021/09/03 06:53:04;;;;;;;9.25;3.53;;;;;;;19.69;61.31;99056.31;5076933;28;20078;-62
2021/09/03 06:55:30;;;;;;;9.40;3.13;;;;;;;19.44;61.17;99014.56;5063218;28;20032;-64
2021/09/03 06:57:56;;;;;;;7.10;3.08;;;;;;;19.73;61.17;99039.97;5058195;28;20491;-63
2021/09/03 07:00:21;;;;;;;8.30;3.40;;;;;;;19.85;61.28;99044.69;5058506;28;20122;-63
2021/09/03 07:02:46;;;;;;;7.65;3.47;;;;;;;19.88;61.02;99047.75;5059526;28;20055;-62
2021/09/03 07:05:12;;;;;;;6.93;3.10;;;;;;;19.58;60.64;99010.19;5045976;28;20024;-64
2021/09/03 07:07:38;;;;;;;5.65;2.70;;;;;;;19.87;60.38;99045.31;5083452;28;20052;-64
2021/09/03 07:10:04;;;;;;;5.55;2.72;;;;;;;19.60;60.83;99042.47;5063844;28;20025;-63
2021/09/03 07:12:29;;;;;;;8.70;3.38;;;;;;;19.27;61.01;98987.66;5051966;28;21051;-64
2021/09/03 07:14:55;;;;;;;6.15;2.78;;;;;;;19.53;61.13;99038.97;5078769;28;20029;-62
2021/09/03 07:17:20;;;;;;;6.70;3.15;;;;;;;19.53;61.66;99038.97;5074949;28;20043;-66
2021/09/03 07:19:46;;;;;;;6.85;3.17;;;;;;;19.68;61.09;99030.97;5067799;28;20032;-63
2021/09/03 07:22:11;;;;;;;6.38;3.10;;;;;;;19.62;61.42;99034.34;5064333;28;20754;-62
2021/09/03 07:24:36;;;;;;;5.45;2.72;;;;;;;19.67;61.47;99032.78;5063452;28;20060;-63
2021/09/03 07:27:03;;;;;;;5.40;2.78;;;;;;;19.64;61.00;99041.09;5058474;28;20110;-64
2021/09/03 07:29:28;;;;;;;7.82;3.00;;;;;;;19.74;61.25;99038.13;5061050;28;20098;-63
2021/09/03 07:31:53;;;;;;;6.70;2.60;;;;;;;19.70;61.49;99037.66;5080076;28;20036;-63
2021/09/03 07:34:19;;;;;;;5.70;3.00;;;;;;;19.61;61.39;99006.38;5044473;28;20101;-63
2021/09/03 07:36:44;;;;;;;5.57;2.85;;;;;;;19.61;61.20;99014.28;5060945;28;20024;-62
2021/09/03 07:39:10;;;;;;;6.10;2.90;;;;;;;19.81;61.77;99032.91;5062185;28;20033;-63
2021/09/03 07:41:35;;;;;;;6.20;2.85;;;;;;;19.96;61.58;99036.22;5061236;28;20887;-64
2021/09/03 07:44:00;;;;;;;6.95;2.80;;;;;;;19.68;61.19;99009.88;5056578;28;20021;-65
2021/09/03 07:46:26;;;;;;;5.85;2.90;;;;;;;19.86;62.19;99041.03;5059305;28;20032;-63
2021/09/03 07:48:51;;;;;;;6.05;2.92;;;;;;;19.96;61.79;99033.59;5058381;28;20590;-64
2021/09/03 07:51:17;;;;;;;5.57;3.08;;;;;;;20.03;61.88;99036.28;5076793;28;20036;-62
2021/09/03 07:53:43;;;;;;;7.03;2.97;;;;;;;19.77;61.82;99004.25;5061083;28;20441;-64
2021/09/03 07:56:09;;;;;;;7.82;3.10;;;;;;;20.07;61.37;99030.38;5072332;28;20040;-63
2021/09/03 07:58:34;;;;;;;8.45;3.38;;;;;;;20.05;61.18;99031.59;5059413;28;20593;-62
2021/09/03 08:01:00;;;;;;;9.27;3.13;;;;;;;20.12;60.99;99027.19;5042129;28;20029;-62
2021/09/03 08:03:26;;;;;;;6.18;3.20;;;;;;;20.35;60.68;99026.84;5077547;28;20030;-61
2021/09/03 08:05:51;;;;;;;6.03;2.95;;;;;;;20.22;61.43;99001.19;5053674;28;20435;-61
2021/09/03 08:08:17;;;;;;;5.88;2.97;;;;;;;20.53;59.35;99027.13;5077837;28;20501;-63
2021/09/03 08:10:42;;;;;;;5.55;2.53;;;;;;;20.60;58.66;99027.13;5061309;28;20510;-65
2021/09/03 08:13:09;;;;;;;5.72;2.70;;;;;;;20.80;59.60;99029.84;5066415;28;20024;-63
2021/09/03 08:15:35;;;;;;;5.40;2.63;;;;;;;20.67;59.15;99028.00;5053732;28;20039;-65
2021/09/03 08:18:01;;;;;;;8.38;3.10;;;;;;;20.80;58.90;99034.31;5061425;28;20028;-67
2021/09/03 08:20:27;;;;;;;6.20;2.78;;;;;;;20.87;60.05;99043.06;5057870;28;20123;-63
2021/09/03 08:22:52;;;;;;;5.78;3.20;;;;;;;20.90;59.36;99037.38;5062081;28;20052;-66
2021/09/03 08:25:19;;;;;;;5.05;2.55;;;;;;;20.96;58.29;99033.13;5060700;28;20035;-62
2021/09/03 08:27:46;;;;;;;6.00;2.72;;;;;;;20.92;57.27;99032.72;5060823;28;20013;-63
2021/09/03 08:30:11;;;;;;;7.95;2.67;;;;;;;20.72;56.52;99014.19;5054973;28;20236;-65
2021/09/03 08:32:37;;;;;;;6.53;2.55;;;;;;;20.90;56.89;99038.19;5078240;28;20527;-64
2021/09/03 08:35:03;;;;;;;6.32;3.03;;;;;;;21.12;56.15;99038.84;5053827;28;20764;-63
2021/09/03 08:37:28;;;;;;;6.68;3.10;;;;;;;21.37;56.72;99026.81;5057302;28;20031;-63
2021/09/03 08:39:54;;;;;;;6.03;2.88;;;;;;;21.56;56.38;99027.84;5048388;28;20317;-63
2021/09/03 08:42:21;;;;;;;10.85;3.40;;;;;;;21.55;53.77;99031.53;5067525;28;20111;-64
2021/09/03 08:44:46;;;;;;;5.88;2.65;;;;;;;21.58;53.82;99025.84;5076282;28;20597;-62
2021/09/03 08:47:13;;;;;;;6.38;3.10;;;;;;;21.55;54.03;99018.28;5073486;28;20024;-66
2021/09/03 08:49:38;;;;;;;5.80;2.83;;;;;;;21.42;55.10;99022.53;5067670;28;20031;-63
2021/09/03 08:52:04;;;;;;;6.15;2.67;;;;;;;21.44;54.39;99017.84;5051101;28;20064;-63
2021/09/03 08:54:29;;;;;;;7.00;2.72;;;;;;;21.35;54.82;98979.41;5062378;28;20044;-63
2021/09/03 08:56:55;;;;;;;6.65;2.90;;;;;;;21.27;53.53;98964.59;5064583;28;20742;-63
2021/09/03 08:59:20;;;;;;;6.50;2.90;;;;;;;21.66;53.44;99015.00;5063194;28;20040;-63
2021/09/03 09:02:08;;;;;;;5.13;2.70;;;;;;;21.73;53.07;99007.88;5063346;28;20076;-63
2021/09/03 09:04:45;;;;;;;6.22;2.60;;;;;;;21.57;54.00;98974.72;5057683;28;20051;-63
2021/09/03 09:07:12;;;;;;;5.57;2.70;;;;;;;21.89;53.41;99018.00;5060461;28;20024;-64
2021/09/03 09:09:42;;;;;;;6.20;2.58;;;;;;;21.90;53.10;98976.47;5057988;28;20027;-64
2021/09/03 09:12:12;;;;;;;5.75;2.70;;;;;;;21.81;53.02;98969.78;5061321;28;20020;-63
2021/09/03 09:15:03;;;;;;;6.47;2.45;;;;;;;22.27;50.95;99004.06;5058403;28;20390;-63
2021/09/03 09:17:28;;;;;;;5.10;2.50;;;;;;;22.16;51.91;99004.69;5059411;28;20433;-64
2021/09/03 09:19:54;;;;;;;6.35;2.63;;;;;;;22.28;51.72;99002.22;5062709;28;20032;-63
2021/09/03 09:22:19;;;;;;;6.82;2.28;;;;;;;22.36;51.68;98998.50;5061814;28;20028;-66
2021/09/03 09:24:46;;;;;;;4.78;2.22;;;;;;;22.52;50.60;98997.19;5064858;28;20024;-62
2021/09/03 09:27:22;;;;;;;6.97;2.50;;;;;;;22.25;50.08;98969.00;5060782;28;20025;-63
2021/09/03 09:29:48;;;;;;;7.28;2.78;;;;;;;22.42;51.36;98992.38;5058406;28;20116;-62
2021/09/03 09:32:13;;;;;;;6.28;2.72;;;;;;;22.49;48.91;98992.31;5076001;28;20036;-64
2021/09/03 09:34:41;;;;;;;8.02;2.90;;;;;;;22.23;49.31;98981.63;5055328;28;20028;-64
2021/09/03 09:37:10;;;;;;;5.10;2.85;;;;;;;22.33;52.82;98989.16;5045098;28;20078;-64
2021/09/03 09:39:46;;;;;;;;;;;;;;;22.13;51.18;98991.84;5059117;28;20029;-61
2021/09/03 09:42:29;;;;;;;4.93;2.60;;;;;;;22.21;50.79;98991.59;5058654;28;20355;-61
2021/09/03 09:45:01;;;;;;;5.53;2.92;;;;;;;22.29;51.16;98985.31;5057790;28;20020;-61
2021/09/03 09:47:26;;;;;;;5.45;2.90;;;;;;;22.09;50.53;98948.28;5063065;28;20060;-63
2021/09/03 09:49:54;;;;;;;8.35;3.53;;;;;;;22.42;49.42;98971.97;5064940;28;20823;-66
2021/09/03 09:52:33;;;;;;;7.20;2.95;;;;;;;22.42;48.22;98976.47;5074830;28;20223;-61
2021/09/03 09:54:58;;;;;;;5.30;3.03;;;;;;;22.46;47.23;98965.22;5056769;28;20016;-62
2021/09/03 09:57:24;;;;;;;6.63;3.30;;;;;;;22.70;46.80;98965.47;5060729;28;20025;-64
2021/09/03 09:59:49;;;;;;;6.70;3.28;;;;;;;22.70;46.53;98960.19;5057996;28;20028;-62
2021/09/03 10:02:15;;;;;;;6.00;3.20;;;;;;;22.96;45.43;98968.94;5056911;28;20566;-65
2021/09/03 10:04:40;;;;;;;7.45;2.70;;;;;;;22.83;44.92;98938.88;5062655;28;20051;-62
2021/09/03 10:07:06;;;;;;;6.28;3.10;;;;;;;22.81;45.30;98964.78;5056432;28;20079;-63
2021/09/03 10:09:32;;;;;;;7.40;3.10;;;;;;;22.90;45.85;98960.03;5041230;28;20628;-61
2021/09/03 10:11:58;;;;;;;6.68;3.38;;;;;;;22.80;45.87;98954.41;5072842;28;20056;-64
2021/09/03 10:14:28;;;;;;;5.72;3.10;;;;;;;22.72;45.98;98944.06;5059083;28;20067;-65
2021/09/03 10:16:55;;;;;;;6.10;3.25;;;;;;;22.73;45.71;98951.81;5049380;28;20090;-64
2021/09/03 10:19:32;;;;;;;6.93;3.05;;;;;;;22.88;45.44;98945.38;5056538;28;20029;-62
2021/09/03 10:22:12;;;;;;;6.85;3.40;;;;;;;22.87;46.83;98910.09;5054179;28;20036;-64
2021/09/03 10:24:39;;;;;;;6.07;2.90;;;;;;;23.04;46.10;98936.91;5055849;28;20032;-63
2021/09/03 10:27:06;;;;;;;5.97;3.22;;;;;;;22.94;46.66;98907.38;5043988;28;20111;-62
2021/09/03 10:29:31;;;;;;;8.50;3.25;;;;;;;23.17;47.22;98925.38;5050200;28;20083;-64
2021/09/03 10:32:12;;;;;;;6.38;3.15;;;;;;;23.26;45.16;98923.25;5051799;28;20049;-64
2021/09/03 10:37:14;;;;;;;5.45;3.22;;;;;;;23.11;45.25;98889.09;5062563;28;20172;-62
2021/09/03 10:39:55;;;;;;;6.38;3.33;;;;;;;23.28;45.98;98910.56;5055507;28;20398;-62
2021/09/03 10:42:36;;;;;;;6.65;3.33;;;;;;;23.40;44.61;98920.22;5048563;28;20186;-64
2021/09/03 10:45:05;;;;;;;6.22;3.10;;;;;;;23.36;44.68;98904.97;5059058;28;20800;-61
2021/09/03 10:47:33;;;;;;;8.98;3.60;;;;;;;23.41;44.43;98913.06;5054603;28;20112;-64
2021/09/03 10:50:08;;;;;;;5.83;3.00;;;;;;;23.26;45.63;98876.31;5036869;28;20662;-63
2021/09/03 10:52:34;;;;;;;5.60;3.08;;;;;;;23.35;46.07;98892.75;5076959;28;20056;-63
2021/09/03 10:54:59;;;;;;;6.13;3.03;;;;;;;23.37;45.85;98895.97;5057498;28;20112;-62
2021/09/03 10:57:25;;;;;;;6.63;3.35;;;;;;;23.33;45.75;98890.31;5053516;28;20053;-62
2021/09/03 11:00:18;;;;;;;7.20;3.30;;;;;;;23.41;45.53;98889.19;5054771;28;20029;-64
2021/09/03 11:02:43;;;;;;;7.00;3.28;;;;;;;23.51;44.87;98883.34;5070139;28;20032;-63
2021/09/03 11:05:11;;;;;;;7.88;3.08;;;;;;;23.70;43.53;98854.97;5073135;28;20387;-63
2021/09/03 11:07:46;;;;;;;6.13;3.20;;;;;;;23.86;43.79;98883.59;5045298;28;20025;-62
2021/09/03 11:10:16;;;;;;;5.82;2.97;;;;;;;23.70;45.30;98847.00;5075888;28;20064;-61
2021/09/03 11:12:49;;;;;;;7.22;3.10;;;;;;;23.80;44.57;98873.84;5065223;28;20094;-63
2021/09/03 11:15:15;;;;;;;6.50;3.30;;;;;;;23.76;45.05;98872.66;5047800;28;20040;-65
2021/09/03 11:17:41;;;;;;;6.75;3.03;;;;;;;23.77;45.22;98872.44;5061545;28;20295;-63
2021/09/03 11:20:07;;;;;;;7.00;3.30;;;;;;;23.89;44.73;98864.53;5061856;28;20036;-64
2021/09/03 11:22:33;;;;;;;6.30;3.00;;;;;;;23.91;44.61;98856.34;5047681;28;20585;-65
2021/09/03 11:25:04;;;;;;;6.80;3.40;;;;;;;23.91;45.11;98861.66;5062012;28;20025;-64
2021/09/03 11:27:30;;;;;;;7.55;3.20;;;;;;;23.81;44.98;98830.34;5045818;28;20021;-63
2021/09/03 11:29:58;;;;;;;8.40;3.42;;;;;;;24.12;44.68;98849.72;5057915;28;20582;-63
2021/09/03 11:32:28;;;;;;;7.95;3.22;;;;;;;24.06;44.46;98855.91;5042715;28;20359;-63